Terminal Aerodrome Forecast
Issued by NWS Wilmington, NC

Home | Current Version | Previous Version | Text Only | Print | Product List | Glossary On
Versions: 1 2 3 4 5 6 7 8 9 10 11 12 13 14 15 16
000
FTUS42 KILM 041720
TAFFLO
TAF
KFLO 041720Z 0418/0518 06007KT P6SM -RA VCSH OVC060
     FM041900 07008KT 6SM -RA OVC025
     FM042000 07006KT 4SM -RA BR OVC015
     FM050000 07006KT 4SM -RA BR OVC007
     FM050400 06006KT 2SM -RA BR OVC007
     FM051000 33004KT 4SM -RA BR OVC003
     FM051500 36005KT 4SM BR OVC003
     FM051700 01005KT P6SM OVC025=

USA.gov is the U.S. government's official web portal to all federal, state and local government web resources and services.